Etusivu
METAR-TAF:

METAR-TAF

Lentoasemat :

Shenandoah Municipal Airport

Shenandoah, Iowa, Yhdysvallat

Leveyspiiri: 40-45N, Pituuspiiri: 095-25W, korkeus merenpinnasta: 296 m

Tämänhetkinen sää

Tämä raportti tehtiin 18 minuuttia sitten, kello 20.35 UTC
Tuuli 13 kn luoteesta
Lämpötila 3°C
Kosteus 30%
Ilmanpaine 1026 hPa
Näkyvyys: 16.1 km
selkeää

METAR: KSDA 262035Z AUTO 32013KT 10SM CLR 03/M13 A3030 RMK AO2

Aika: 14:53 (20:53 UTC)


TAF: puuttuu

Säähavainnot ja -ennusteet yli 4000 lentoasemalta (METAR- ja TAF-raportit).

Käytössä olevat sääasemat on merkitty karttaan keltaisilla ja punaisilla pisteillä.

Aseta hiiri pisteen päälle nähdäksesi sääaseman nimen.

Klikkaa sitten nähdäksesi säähavainnot ja -ennusteet.

Kartan vaihtaminen: klikkaa mustalla rastilla varustettuja vihreitä pisteitä, niin voit zoomata sisään; viivalla varustettua vihreää pistettä, niin voit zoomata ulos tai vihreitä nuolia, niin pääset viereisille kartoille.


METAR-TAF: